Time;durP1;ratioP1;P1;durP2;ratioP2;P2;SDS_P1;SDS_P2;PMS_P1;PMS_P2;Temp;Humidity;BMP_temperature;BMP_pressure;BME280_temperature;BME280_humidity;BME280_pressure;Samples;Min_cycle;Max_cycle;Signal;HPM_P1;HPM_P2
2024/04/15 00:02:08;;;;;;;10.00;1.70;;;;;;;5.03;84.30;99830.47;5395896;26;20004;-68
2024/04/15 00:04:34;;;;;;;1.13;1.05;;;;;;;5.03;83.92;99830.47;5427581;26;20015;-68
2024/04/15 00:06:59;;;;;;;2.20;1.20;;;;;;;4.98;83.95;99822.72;5427263;26;20013;-67
2024/04/15 00:09:25;;;;;;;1.65;1.15;;;;;;;4.98;83.99;99825.28;5427750;26;20000;-67
2024/04/15 00:11:50;;;;;;;3.45;1.92;;;;;;;4.95;83.96;99818.41;5427310;26;20321;-68
2024/04/15 00:14:15;;;;;;;4.07;1.80;;;;;;;4.98;83.42;99832.13;5427645;26;20365;-68
2024/04/15 00:16:41;;;;;;;16.13;2.42;;;;;;;4.95;83.55;99822.69;5427554;26;20053;-68
2024/04/15 00:19:06;;;;;;;7.38;1.58;;;;;;;4.94;83.42;99821.81;5427393;26;19999;-67
2024/04/15 00:21:31;;;;;;;16.38;1.20;;;;;;;4.92;83.46;99813.22;5427529;26;19999;-68
2024/04/15 00:23:57;;;;;;;3.70;1.45;;;;;;;4.91;83.42;99819.25;5427274;26;20044;-67
2024/04/15 00:26:22;;;;;;;7.53;1.00;;;;;;;4.95;83.45;99818.41;5427009;26;20340;-67
2024/04/15 00:28:47;;;;;;;15.75;2.15;;;;;;;4.91;82.93;99814.09;5427678;26;20012;-67
2024/04/15 00:31:13;;;;;;;19.38;1.48;;;;;;;4.96;82.72;99815.00;5427199;26;20003;-67
2024/04/15 00:33:38;;;;;;;0.90;0.90;;;;;;;4.89;82.70;99790.06;5396090;26;20339;-67
2024/04/15 00:36:04;;;;;;;18.55;2.53;;;;;;;4.98;82.76;99807.28;5427605;26;19999;-67
2024/04/15 00:38:29;;;;;;;5.55;1.70;;;;;;;4.96;82.76;99801.25;5427417;26;20000;-67
2024/04/15 00:40:54;;;;;;;10.82;2.28;;;;;;;4.92;82.38;99802.09;5426341;26;20015;-67
2024/04/15 00:43:20;;;;;;;4.95;1.65;;;;;;;4.92;82.16;99799.53;5427113;26;20003;-68
2024/04/15 00:45:45;;;;;;;20.95;2.85;;;;;;;4.94;82.58;99815.81;5427461;26;20005;-68
2024/04/15 00:48:17;;;;;;;1.33;1.23;;;;;;;4.92;82.31;99813.22;5430375;26;19999;-68
2024/04/15 00:50:46;;;;;;;7.20;1.77;;;;;;;4.92;81.95;99812.41;5430626;26;20023;-67
2024/04/15 00:53:14;;;;;;;4.85;1.55;;;;;;;4.90;82.04;99804.66;5398945;26;20046;-67
2024/04/15 00:55:43;;;;;;;7.40;2.40;;;;;;;4.89;82.25;99799.53;5399246;26;20000;-67
2024/04/15 00:58:09;;;;;;;2.45;1.10;;;;;;;4.90;82.13;99804.66;5430403;26;20392;-68
2024/04/15 01:00:35;;;;;;;14.05;2.55;;;;;;;4.84;82.24;99796.91;5430626;26;20003;-67
2024/04/15 01:03:00;;;;;;;2.67;1.95;;;;;;;4.81;82.21;99802.03;5398728;26;20005;-67
2024/04/15 01:05:26;;;;;;;11.48;1.63;;;;;;;4.78;82.11;99799.44;5398863;26;19995;-67
2024/04/15 01:07:51;;;;;;;2.50;1.63;;;;;;;4.78;81.92;99799.44;5430410;26;19999;-67
2024/04/15 01:10:17;;;;;;;1.10;1.00;;;;;;;4.78;82.20;99802.00;5429978;26;20004;-67
2024/04/15 01:12:42;;;;;;;0.90;0.90;;;;;;;4.76;82.11;99793.44;5429942;26;20010;-67
2024/04/15 01:15:08;;;;;;;5.70;1.35;;;;;;;4.79;82.07;99796.03;5430484;26;20010;-67
2024/04/15 01:17:33;;;;;;;11.57;1.83;;;;;;;4.75;82.49;99796.84;5398783;26;20010;-67
2024/04/15 01:19:59;;;;;;;6.85;2.10;;;;;;;4.73;82.37;99796.00;5398877;26;20006;-67
2024/04/15 01:22:40;;;;;;;3.13;1.23;;;;;;;4.70;82.39;99792.56;5398737;26;20023;-67
2024/04/15 01:25:05;;;;;;;1.00;0.95;;;;;;;4.66;82.08;99790.81;5430208;26;20000;-66
2024/04/15 01:27:31;;;;;;;1.58;0.90;;;;;;;4.64;81.87;99789.94;5398663;26;20451;-67
2024/04/15 01:29:56;;;;;;;1.77;1.25;;;;;;;4.69;82.25;99790.84;5429980;26;20004;-67
2024/04/15 01:32:21;;;;;;;21.40;2.47;;;;;;;4.68;82.08;99781.38;5429900;26;20403;-67
2024/04/15 01:34:47;;;;;;;1.38;1.27;;;;;;;4.73;82.35;99786.56;5398745;26;20038;-67
2024/04/15 01:37:12;;;;;;;10.00;1.90;;;;;;;4.68;82.03;99789.09;5430036;26;20010;-67
2024/04/15 01:39:37;;;;;;;7.78;1.77;;;;;;;4.64;82.40;99783.94;5429969;26;19995;-67
2024/04/15 01:42:03;;;;;;;2.45;1.92;;;;;;;4.61;82.63;99783.91;5429777;26;20000;-66
2024/04/15 01:44:28;;;;;;;0.82;0.82;;;;;;;4.61;82.55;99781.34;5430011;26;20004;-67
2024/04/15 01:46:53;;;;;;;15.52;2.05;;;;;;;4.63;82.92;99777.94;5429883;26;20004;-67
2024/04/15 01:49:19;;;;;;;3.08;1.13;;;;;;;4.62;83.14;99783.94;5429737;26;20510;-67
2024/04/15 01:51:44;;;;;;;5.00;1.52;;;;;;;4.62;82.89;99777.94;5429595;26;20020;-67
2024/04/15 01:54:09;;;;;;;5.13;2.25;;;;;;;4.65;82.74;99772.81;5429472;26;20505;-68
2024/04/15 01:56:35;;;;;;;1.50;1.35;;;;;;;4.59;82.93;99758.19;5429364;26;20004;-67
2024/04/15 01:59:00;;;;;;;2.38;2.22;;;;;;;4.65;82.91;99778.81;5429283;26;20096;-67
2024/04/15 02:01:25;;;;;;;15.45;1.77;;;;;;;4.57;82.83;99767.59;5429254;26;20019;-68
2024/04/15 02:03:51;;;;;;;1.52;1.45;;;;;;;4.57;82.55;99770.16;5429365;26;20011;-67
2024/04/15 02:06:16;;;;;;;2.50;1.42;;;;;;;4.57;82.76;99773.63;5398112;26;19996;-67
2024/04/15 02:08:41;;;;;;;2.85;2.17;;;;;;;4.58;82.40;99771.91;5429592;26;20004;-67
2024/04/15 02:11:07;;;;;;;11.55;1.30;;;;;;;4.52;82.54;99766.75;5429268;26;20003;-67
2024/04/15 02:13:32;;;;;;;1.42;0.90;;;;;;;4.51;82.78;99767.56;5397998;26;20000;-66
2024/04/15 02:15:57;;;;;;;2.00;0.98;;;;;;;4.45;82.79;99763.25;5430022;26;20045;-67
2024/04/15 02:18:23;;;;;;;8.30;1.52;;;;;;;4.38;82.50;99764.09;5429428;26;19999;-68
2024/04/15 02:20:48;;;;;;;14.52;5.00;;;;;;;4.41;82.36;99762.38;5429260;26;20032;-66
2024/04/15 02:23:14;;;;;;;9.82;3.05;;;;;;;4.42;82.39;99763.25;5429405;26;20011;-67
2024/04/15 02:25:39;;;;;;;0.85;0.77;;;;;;;4.37;82.71;99759.78;5428877;26;20320;-66
2024/04/15 02:28:05;;;;;;;3.35;1.50;;;;;;;4.33;82.66;99751.19;5429048;26;20014;-67
2024/04/15 02:30:30;;;;;;;0.77;0.77;;;;;;;4.32;82.46;99754.59;5428985;26;20027;-67
2024/04/15 02:32:55;;;;;;;4.75;2.55;;;;;;;4.26;83.00;99749.44;5429147;26;20457;-68
2024/04/15 02:35:21;;;;;;;1.25;0.60;;;;;;;4.26;82.50;99752.00;5428878;26;20003;-67
2024/04/15 02:37:46;;;;;;;1.35;1.35;;;;;;;4.18;82.64;99745.09;5397255;26;20053;-67
2024/04/15 02:40:11;;;;;;;3.03;2.42;;;;;;;4.19;82.83;99738.25;5428773;26;20416;-67
2024/04/15 02:42:37;;;;;;;0.90;0.90;;;;;;;4.18;83.07;99742.53;5428465;26;20041;-68
2024/04/15 02:45:02;;;;;;;3.60;1.23;;;;;;;4.14;82.84;99722.78;5428952;26;20020;-67
2024/04/15 02:47:27;;;;;;;6.80;1.98;;;;;;;4.21;83.18;99740.00;5428684;26;20014;-67
2024/04/15 02:49:53;;;;;;;4.82;1.20;;;;;;;4.26;82.34;99734.00;5396963;26;20006;-68
2024/04/15 02:52:18;;;;;;;2.00;1.20;;;;;;;4.27;82.77;99735.72;5428791;26;20023;-67
2024/04/15 02:54:43;;;;;;;2.70;1.55;;;;;;;4.24;82.42;99735.69;5428441;26;20011;-68
2024/04/15 02:57:09;;;;;;;0.80;0.80;;;;;;;4.20;82.74;99730.53;5428333;26;19999;-66
2024/04/15 02:59:34;;;;;;;0.80;0.70;;;;;;;4.24;83.03;99725.41;5428383;26;20014;-67
2024/04/15 03:01:59;;;;;;;2.13;0.95;;;;;;;4.22;82.89;99720.28;5428415;26;20004;-67
2024/04/15 03:04:25;;;;;;;6.95;2.10;;;;;;;4.20;82.65;99707.41;5428273;26;20011;-67
2024/04/15 03:06:54;;;;;;;1.30;0.90;;;;;;;4.21;82.61;99710.84;5397209;26;20045;-67
2024/04/15 03:09:22;;;;;;;5.78;1.58;;;;;;;4.22;82.65;99716.00;5427571;26;20011;-66
2024/04/15 03:11:47;;;;;;;0.75;0.75;;;;;;;4.26;82.68;99723.72;5428387;26;20006;-66
2024/04/15 03:14:13;;;;;;;2.53;2.08;;;;;;;4.24;82.35;99717.72;5428341;26;20004;-67
2024/04/15 03:16:38;;;;;;;1.75;1.42;;;;;;;4.23;82.49;99716.88;5428686;26;20011;-66
2024/04/15 03:19:04;;;;;;;3.58;2.55;;;;;;;4.25;82.74;99714.31;5396912;26;20011;-67
2024/04/15 03:21:29;;;;;;;0.85;0.85;;;;;;;4.21;82.47;99716.88;5428180;26;20296;-66
2024/04/15 03:23:55;;;;;;;4.63;1.38;;;;;;;4.24;82.46;99717.72;5427964;26;20549;-67
2024/04/15 03:26:20;;;;;;;4.03;1.63;;;;;;;4.23;82.72;99706.59;5428088;26;20325;-65
2024/04/15 03:28:45;;;;;;;3.13;1.52;;;;;;;4.35;82.80;99713.50;5428376;26;20049;-66
2024/04/15 03:31:11;;;;;;;5.63;2.10;;;;;;;4.34;83.05;99715.22;5428498;26;19999;-66
2024/04/15 03:33:40;;;;;;;1.13;1.02;;;;;;;4.35;82.83;99703.22;5427989;26;20313;-66
2024/04/15 03:36:05;;;;;;;13.75;4.90;;;;;;;4.33;82.57;99707.50;5428443;26;20012;-67
2024/04/15 03:38:31;;;;;;;7.93;3.28;;;;;;;4.24;82.39;99700.59;5428061;26;19999;-66
2024/04/15 03:40:56;;;;;;;3.55;0.93;;;;;;;4.20;82.66;99704.84;5428203;26;20003;-66
2024/04/15 03:43:22;;;;;;;2.03;1.88;;;;;;;4.14;82.63;99698.84;5427959;26;19999;-66
2024/04/15 03:45:47;;;;;;;8.20;1.85;;;;;;;4.06;82.70;99699.63;5428287;26;20003;-67
2024/04/15 03:48:12;;;;;;;1.33;0.73;;;;;;;4.07;82.80;99700.50;5396747;26;20039;-66
2024/04/15 03:50:38;;;;;;;3.60;1.67;;;;;;;4.05;82.75;99704.75;5428000;26;19999;-66
2024/04/15 03:53:03;;;;;;;5.57;2.50;;;;;;;4.07;82.81;99700.50;5427786;26;20014;-66
2024/04/15 03:55:28;;;;;;;1.58;0.88;;;;;;;4.07;83.07;99697.94;5428314;26;20018;-66
2024/04/15 03:57:54;;;;;;;1.38;1.05;;;;;;;4.06;82.55;99688.47;5428077;26;20004;-66
2024/04/15 04:00:19;;;;;;;2.45;2.25;;;;;;;4.11;82.90;99694.50;5428167;26;20372;-66
2024/04/15 04:02:44;;;;;;;14.68;1.10;;;;;;;4.08;82.80;99690.22;5427757;26;20053;-66
2024/04/15 04:05:10;;;;;;;1.50;1.35;;;;;;;4.04;83.34;99697.91;5427886;26;20003;-66
2024/04/15 04:07:35;;;;;;;1.48;0.60;;;;;;;4.06;83.02;99696.19;5427429;26;20003;-68
2024/04/15 04:10:00;;;;;;;3.15;1.48;;;;;;;4.07;83.35;99692.78;5396469;26;20010;-67
2024/04/15 04:12:26;;;;;;;4.22;2.50;;;;;;;4.07;83.37;99692.78;5427525;26;19995;-68
2024/04/15 04:14:51;;;;;;;4.75;2.60;;;;;;;4.07;83.56;99692.78;5426967;26;20011;-68
2024/04/15 04:17:16;;;;;;;0.77;0.77;;;;;;;4.03;83.84;99685.88;5427378;26;20127;-67
2024/04/15 04:19:42;;;;;;;1.90;1.70;;;;;;;4.11;83.86;99691.94;5427048;26;20000;-67
2024/04/15 04:22:07;;;;;;;2.33;2.10;;;;;;;4.17;83.95;99689.41;5429509;26;20039;-68
2024/04/15 04:24:32;;;;;;;19.23;1.48;;;;;;;4.24;84.43;99692.03;5430797;26;20003;-67
2024/04/15 04:26:58;;;;;;;8.02;2.17;;;;;;;4.32;84.03;99693.81;5430755;26;20050;-67
2024/04/15 04:29:23;;;;;;;1.90;1.48;;;;;;;4.57;84.54;99688.78;5430967;26;20443;-67
2024/04/15 04:31:48;;;;;;;10.27;2.67;;;;;;;4.80;85.17;99672.59;5399409;26;20003;-70
2024/04/15 04:34:14;;;;;;;6.00;2.42;;;;;;;5.12;85.56;99678.69;5430798;26;20003;-69
2024/04/15 04:36:39;;;;;;;1.23;1.13;;;;;;;5.48;85.53;99673.56;5399075;26;20014;-69
2024/04/15 04:39:05;;;;;;;3.30;1.42;;;;;;;5.63;85.16;99677.88;5430547;26;20081;-68
2024/04/15 04:41:31;;;;;;;1.15;1.05;;;;;;;5.81;84.66;99674.41;5398431;26;20014;-69
2024/04/15 04:43:56;;;;;;;13.43;1.83;;;;;;;6.19;85.00;99675.28;5430930;26;20011;-70
2024/04/15 04:46:21;;;;;;;10.13;2.05;;;;;;;6.64;84.13;99668.25;5430775;26;20015;-68
2024/04/15 04:48:47;;;;;;;6.30;1.70;;;;;;;7.15;83.55;99677.47;5398967;26;20014;-68
2024/04/15 04:51:12;;;;;;;3.53;1.83;;;;;;;7.52;83.04;99674.66;5430752;26;20003;-69
2024/04/15 04:53:38;;;;;;;8.85;2.35;;;;;;;7.91;80.49;99678.59;5430477;26;20010;-69
2024/04/15 04:56:07;;;;;;;4.80;2.03;;;;;;;8.33;80.60;99673.03;5430535;26;20053;-68
2024/04/15 04:58:32;;;;;;;3.53;1.65;;;;;;;8.78;80.13;99674.25;5430278;26;19996;-69
2024/04/15 05:01:09;;;;;;;6.03;2.13;;;;;;;9.15;80.00;99660.81;5430616;26;20065;-69
2024/04/15 05:03:39;;;;;;;5.93;2.28;;;;;;;9.62;79.67;99677.38;5430892;26;20004;-69
2024/04/15 05:06:09;;;;;;;6.13;1.65;;;;;;;10.13;79.17;99678.22;5430911;26;20000;-69
2024/04/15 05:08:34;;;;;;;4.85;1.60;;;;;;;10.66;80.23;99670.34;5430999;26;20027;-69
2024/04/15 05:10:59;;;;;;;1.95;1.20;;;;;;;11.10;78.23;99671.97;5430239;26;20004;-68
2024/04/15 05:13:26;;;;;;;3.55;1.83;;;;;;;11.30;73.42;99672.41;5430113;26;20039;-69
2024/04/15 05:15:51;;;;;;;2.35;1.15;;;;;;;11.67;74.50;99675.88;5399178;26;20022;-70
2024/04/15 05:18:16;;;;;;;4.75;1.55;;;;;;;11.93;72.89;99674.38;5430522;26;20004;-68
2024/04/15 05:20:42;;;;;;;1.70;1.20;;;;;;;12.36;72.90;99680.22;5428613;26;20057;-68
2024/04/15 05:23:07;;;;;;;3.00;1.90;;;;;;;12.26;72.37;99684.81;5430224;26;20419;-68
2024/04/15 05:25:32;;;;;;;3.22;1.58;;;;;;;12.29;69.11;99678.66;5430191;26;19999;-70
2024/04/15 05:27:58;;;;;;;7.20;1.95;;;;;;;12.36;69.33;99675.00;5429827;26;20000;-71
2024/04/15 05:30:23;;;;;;;4.30;1.38;;;;;;;12.18;66.96;99673.75;5398841;26;20010;-69
2024/04/15 05:32:48;;;;;;;5.18;1.92;;;;;;;12.06;66.12;99678.34;5429351;26;20000;-68
2024/04/15 05:35:14;;;;;;;8.55;1.95;;;;;;;12.39;64.88;99677.53;5398191;26;20347;-69
2024/04/15 05:37:39;;;;;;;7.05;1.80;;;;;;;12.97;65.67;99675.91;5430063;26;20003;-67
2024/04/15 05:40:05;;;;;;;11.18;2.30;;;;;;;12.94;63.19;99665.56;5428267;26;20008;-68
2024/04/15 05:42:30;;;;;;;5.82;1.38;;;;;;;13.10;63.31;99673.78;5398130;26;20015;-68
2024/04/15 05:44:56;;;;;;;1.25;1.05;;;;;;;13.05;61.87;99657.41;5429894;26;20009;-67
2024/04/15 05:47:21;;;;;;;3.22;1.52;;;;;;;13.22;61.84;99665.56;5429783;26;20015;-68
2024/04/15 05:49:46;;;;;;;3.05;1.30;;;;;;;13.46;57.95;99668.28;5429445;26;20018;-68
2024/04/15 05:52:12;;;;;;;4.70;1.42;;;;;;;13.59;56.96;99655.75;5429953;26;20033;-68
2024/04/15 05:54:37;;;;;;;6.65;1.90;;;;;;;13.87;58.19;99666.97;5429680;26;20031;-68
2024/04/15 05:57:03;;;;;;;2.22;1.77;;;;;;;14.24;55.26;99659.63;5429611;26;20003;-67
2024/04/15 05:59:29;;;;;;;5.82;1.40;;;;;;;14.59;54.51;99665.31;5429711;26;19999;-68
2024/04/15 06:01:54;;;;;;;4.10;1.33;;;;;;;14.66;52.67;99662.47;5429547;26;20003;-67
2024/04/15 06:04:19;;;;;;;4.95;1.52;;;;;;;14.85;52.13;99653.09;5429764;26;20464;-68
2024/04/15 06:06:45;;;;;;;3.83;1.70;;;;;;;15.37;54.21;99666.75;5429636;26;20014;-68
2024/04/15 06:09:10;;;;;;;2.45;1.25;;;;;;;15.70;51.44;99668.06;5397887;26;20018;-68
2024/04/15 06:11:35;;;;;;;2.70;1.33;;;;;;;16.23;52.15;99668.44;5429479;26;19996;-68
2024/04/15 06:14:02;;;;;;;5.80;1.52;;;;;;;16.56;51.96;99659.16;5429667;26;20049;-68
2024/04/15 06:16:27;;;;;;;6.13;1.50;;;;;;;16.47;48.98;99653.41;5406744;26;20050;-67
2024/04/15 06:18:53;;;;;;;3.42;1.38;;;;;;;16.13;48.34;99657.56;5393799;26;20012;-67
2024/04/15 06:21:20;;;;;;;1.88;1.00;;;;;;;15.83;48.15;99660.53;5393812;26;20000;-68
2024/04/15 06:23:45;;;;;;;3.13;1.40;;;;;;;15.46;48.15;99655.91;5393475;26;20058;-68
2024/04/15 06:26:11;;;;;;;1.05;0.95;;;;;;;15.40;48.12;99661.41;5393846;26;20008;-67
2024/04/15 06:28:36;;;;;;;2.00;1.25;;;;;;;14.78;48.25;99661.16;5393910;26;20004;-68
2024/04/15 06:31:01;;;;;;;4.18;1.45;;;;;;;14.09;47.97;99661.03;5363021;26;19997;-67
2024/04/15 06:33:27;;;;;;;0.77;0.57;;;;;;;13.41;48.60;99654.53;5393779;26;20155;-68
2024/04/15 06:35:53;;;;;;;3.15;1.10;;;;;;;12.83;49.52;99656.31;5393799;26;20019;-67
2024/04/15 06:38:18;;;;;;;2.60;1.48;;;;;;;12.40;50.35;99658.41;5391988;26;20000;-69
2024/04/15 06:40:44;;;;;;;6.38;1.67;;;;;;;11.93;51.28;99661.38;5393780;26;20011;-68
2024/04/15 06:43:10;;;;;;;2.75;1.05;;;;;;;11.38;51.42;99650.56;5391133;26;20000;-67
2024/04/15 06:45:36;;;;;;;2.75;1.20;;;;;;;10.92;52.24;99652.50;5392725;26;20036;-68
2024/04/15 06:48:02;;;;;;;2.22;1.35;;;;;;;10.91;52.61;99651.63;5393453;26;20000;-69
2024/04/15 06:50:27;;;;;;;6.10;1.20;;;;;;;10.62;53.31;99655.69;5393552;26;20019;-68
2024/04/15 06:52:52;;;;;;;5.18;1.55;;;;;;;10.73;54.60;99650.31;5393482;26;20000;-67
2024/04/15 06:55:18;;;;;;;2.92;0.93;;;;;;;11.47;54.86;99649.50;5393395;26;20019;-68
2024/04/15 06:57:43;;;;;;;1.67;1.15;;;;;;;12.30;54.07;99636.16;5392967;26;20000;-67
2024/04/15 07:00:09;;;;;;;1.73;1.25;;;;;;;13.25;52.40;99643.75;5393255;26;20032;-67
2024/04/15 07:02:34;;;;;;;4.55;1.83;;;;;;;14.15;53.33;99633.84;5393383;26;20004;-68
2024/04/15 07:05:00;;;;;;;1.85;1.05;;;;;;;14.94;52.57;99645.78;5393032;26;20013;-68
2024/04/15 07:07:28;;;;;;;1.23;0.82;;;;;;;15.63;49.08;99640.44;5393472;26;20004;-67
2024/04/15 07:09:53;;;;;;;5.20;0.90;;;;;;;16.38;47.22;99637.25;5393413;26;20015;-66
2024/04/15 07:12:19;;;;;;;2.05;1.15;;;;;;;15.98;42.42;99641.59;5393013;26;20008;-66
2024/04/15 07:14:45;;;;;;;2.15;1.30;;;;;;;14.93;42.83;99634.50;5393211;26;20119;-67
2024/04/15 07:17:10;;;;;;;2.15;1.00;;;;;;;14.19;44.61;99630.22;5393393;26;20019;-67
2024/04/15 07:19:35;;;;;;;6.97;1.15;;;;;;;13.74;46.94;99648.28;5393663;26;20508;-68
2024/04/15 07:22:01;;;;;;;6.13;1.35;;;;;;;13.81;47.10;99641.97;5393418;26;20055;-67
2024/04/15 07:24:27;;;;;;;2.63;1.00;;;;;;;14.35;46.95;99641.81;5392955;26;20016;-67
2024/04/15 07:26:52;;;;;;;1.90;1.00;;;;;;;14.98;44.18;99637.75;5393072;26;20033;-67
2024/04/15 07:29:18;;;;;;;2.60;1.00;;;;;;;15.36;44.08;99631.91;5393149;26;20004;-67
2024/04/15 07:31:43;;;;;;;1.27;0.80;;;;;;;15.91;44.32;99640.09;5393493;26;20000;-67
2024/04/15 07:34:09;;;;;;;1.55;0.88;;;;;;;16.14;43.08;99646.16;5393137;26;20011;-68
2024/04/15 07:36:34;;;;;;;4.20;1.08;;;;;;;15.69;40.33;99640.16;5362091;26;20004;-66
2024/04/15 07:38:59;;;;;;;3.83;1.08;;;;;;;14.93;42.22;99636.25;5392956;26;20024;-66
2024/04/15 07:41:25;;;;;;;4.35;1.20;;;;;;;14.30;42.44;99638.53;5392790;26;20004;-66
2024/04/15 07:43:50;;;;;;;1.25;0.47;;;;;;;13.63;43.99;99636.47;5362017;26;20000;-67
2024/04/15 07:46:16;;;;;;;0.98;0.75;;;;;;;13.56;45.96;99634.94;5391437;26;20014;-67
2024/04/15 07:48:41;;;;;;;2.35;0.75;;;;;;;14.05;44.27;99634.19;5392968;26;20015;-66
2024/04/15 07:51:07;;;;;;;0.77;0.70;;;;;;;14.50;44.60;99643.00;5393059;26;20001;-67
2024/04/15 07:53:32;;;;;;;1.25;1.02;;;;;;;15.10;43.87;99631.19;5390960;26;19996;-67
2024/04/15 07:55:57;;;;;;;0.32;0.32;;;;;;;15.70;43.90;99634.03;5392644;26;20032;-67
2024/04/15 07:58:23;;;;;;;1.27;0.65;;;;;;;16.65;43.14;99629.91;5393198;26;20034;-66
2024/04/15 08:00:48;;;;;;;1.42;0.90;;;;;;;17.22;40.55;99634.25;5393007;26;20004;-67
2024/04/15 08:03:14;;;;;;;3.35;1.35;;;;;;;17.14;41.00;99625.09;5392555;26;20334;-67
2024/04/15 08:05:40;;;;;;;7.20;1.08;;;;;;;16.43;41.40;99632.66;5392968;26;20004;-66
2024/04/15 08:08:06;;;;;;;1.80;0.90;;;;;;;15.77;40.86;99651.16;5361737;26;20005;-67
2024/04/15 08:10:32;;;;;;;1.05;0.60;;;;;;;15.42;41.12;99645.63;5392723;26;20001;-67
2024/04/15 08:12:57;;;;;;;1.33;0.85;;;;;;;15.89;41.91;99641.09;5392379;26;20007;-67
2024/04/15 08:15:23;;;;;;;4.10;0.80;;;;;;;16.55;40.56;99645.22;5392745;26;20015;-68
2024/04/15 08:17:48;;;;;;;3.50;1.00;;;;;;;17.19;40.52;99639.66;5391121;26;20046;-68
2024/04/15 08:20:13;;;;;;;2.90;0.82;;;;;;;17.87;39.26;99629.34;5392997;26;20001;-67
2024/04/15 08:22:40;;;;;;;7.35;1.05;;;;;;;18.07;40.01;99640.56;5392769;26;20019;-67
2024/04/15 08:25:08;;;;;;;3.03;0.90;;;;;;;18.52;39.18;99637.38;5392405;26;20019;-67
2024/04/15 08:27:35;;;;;;;1.38;0.80;;;;;;;18.90;36.91;99625.69;5392424;26;20004;-67
2024/04/15 08:30:00;;;;;;;8.57;1.10;;;;;;;19.15;36.41;99625.19;5392601;26;20084;-67
2024/04/15 08:32:25;;;;;;;2.90;1.10;;;;;;;19.05;37.35;99632.75;5390941;26;20008;-67
2024/04/15 08:34:51;;;;;;;6.28;1.10;;;;;;;19.42;37.50;99623.69;5392379;26;20019;-67
2024/04/15 08:37:17;;;;;;;1.02;0.70;;;;;;;20.06;36.50;99625.25;5392051;26;20015;-67
2024/04/15 08:39:43;;;;;;;8.00;1.77;;;;;;;20.36;35.31;99619.03;5392504;26;19996;-67
2024/04/15 08:42:38;;;;;;;5.50;0.73;;;;;;;20.59;34.25;99614.06;5360967;26;20011;-67
2024/04/15 08:45:07;;;;;;;4.22;0.70;;;;;;;20.49;33.44;99613.84;5390424;26;20030;-66
2024/04/15 08:47:34;;;;;;;4.72;0.70;;;;;;;20.22;33.59;99627.78;5361073;26;20015;-67
2024/04/15 08:50:02;;;;;;;2.38;0.68;;;;;;;19.39;34.95;99614.16;5392299;26;20015;-67
2024/04/15 08:52:27;;;;;;;5.47;1.20;;;;;;;18.98;36.92;99610.31;5392214;26;20000;-67
2024/04/15 08:54:54;;;;;;;4.50;1.13;;;;;;;19.73;36.92;99610.50;5391873;26;20042;-67
2024/04/15 08:57:21;;;;;;;1.48;0.80;;;;;;;19.77;33.69;99602.34;5391378;26;20000;-67
2024/04/15 08:59:47;;;;;;;1.40;0.70;;;;;;;18.38;33.88;99601.34;5391739;26;20051;-66
2024/04/15 09:02:15;;;;;;;2.05;0.95;;;;;;;17.52;34.86;99600.50;5391777;26;20005;-67
2024/04/15 09:04:41;;;;;;;2.47;1.08;;;;;;;17.86;34.84;99592.66;5391390;26;20008;-67
2024/04/15 09:07:07;;;;;;;2.45;0.93;;;;;;;18.22;34.51;99591.69;5392295;26;20030;-67
2024/04/15 09:09:33;;;;;;;1.95;0.85;;;;;;;18.72;34.36;99590.78;5395249;26;20004;-67
2024/04/15 09:11:58;;;;;;;2.83;1.25;;;;;;;19.32;34.52;99590.03;5394829;26;20012;-67
2024/04/15 09:14:23;;;;;;;3.65;1.25;;;;;;;19.86;34.04;99590.38;5394957;26;19996;-67
2024/04/15 09:16:52;;;;;;;2.03;0.75;;;;;;;19.15;32.41;99579.63;5395232;26;20447;-67
2024/04/15 09:19:17;;;;;;;2.47;1.15;;;;;;;17.57;33.79;99575.69;5364609;26;20004;-66
2024/04/15 09:21:43;;;;;;;2.50;0.70;;;;;;;16.24;35.61;99588.97;5395381;26;20042;-67
2024/04/15 09:24:09;;;;;;;2.15;1.13;;;;;;;15.14;37.54;99582.28;5394613;26;20016;-66
2024/04/15 09:26:35;;;;;;;2.65;1.23;;;;;;;14.41;38.90;99572.00;5394786;26;20004;-67
2024/04/15 09:29:00;;;;;;;2.50;1.00;;;;;;;14.15;39.75;99581.66;5393668;26;20352;-66
2024/04/15 09:31:25;;;;;;;1.13;0.68;;;;;;;13.69;40.65;99575.41;5394613;26;20011;-67
2024/04/15 09:33:51;;;;;;;1.77;0.70;;;;;;;14.05;41.79;99581.13;5394839;26;20000;-66
2024/04/15 09:36:17;;;;;;;3.08;1.58;;;;;;;15.16;41.43;99575.19;5394982;26;20409;-66
2024/04/15 09:38:45;;;;;;;1.02;0.70;;;;;;;15.80;39.63;99569.09;5394546;26;20285;-67
2024/04/15 09:41:13;;;;;;;6.13;1.50;;;;;;;16.69;38.76;99565.13;5363797;26;19997;-66
2024/04/15 09:43:39;;;;;;;6.45;0.73;;;;;;;16.46;38.38;99564.41;5394511;26;20011;-67
2024/04/15 09:46:05;;;;;;;1.17;0.95;;;;;;;17.03;38.28;99563.47;5394845;26;20012;-68
2024/04/15 09:48:31;;;;;;;1.58;1.08;;;;;;;17.29;36.86;99561.38;5394501;26;20004;-66
2024/04/15 09:51:05;;;;;;;1.98;1.02;;;;;;;17.18;36.28;99564.53;5363670;26;20000;-66
2024/04/15 09:53:37;;;;;;;5.05;0.70;;;;;;;16.52;37.05;99555.44;5394609;26;20050;-66
2024/04/15 09:56:02;;;;;;;;;;;;;;;15.67;38.16;99571.38;5364320;26;20077;-68
2024/04/15 09:58:30;;;;;;;1.58;0.80;;;;;;;15.96;38.71;99562.25;5392583;26;19925;-67
2024/04/15 10:00:58;;;;;;;4.75;1.00;;;;;;;16.80;38.34;99548.88;5394785;26;19997;-67
2024/04/15 10:03:28;;;;;;;5.18;0.82;;;;;;;17.88;37.03;99554.03;5363128;26;20020;-67
2024/04/15 10:05:58;;;;;;;1.65;0.85;;;;;;;18.49;34.61;99535.91;5394375;26;20310;-67
2024/04/15 10:08:24;;;;;;;3.33;1.95;;;;;;;18.83;34.51;99543.69;5394119;26;19992;-66
2024/04/15 10:10:50;;;;;;;1.33;0.80;;;;;;;18.59;33.68;99546.78;5392252;26;19993;-66
2024/04/15 10:13:16;;;;;;;5.03;1.27;;;;;;;17.87;35.80;99547.09;5394158;26;20000;-66
2024/04/15 10:15:41;;;;;;;2.90;1.42;;;;;;;18.23;34.63;99532.94;5394414;26;20037;-67
2024/04/15 10:18:16;;;;;;;1.38;0.82;;;;;;;18.70;35.04;99547.03;5393636;26;20004;-66
2024/04/15 10:20:43;;;;;;;1.25;0.57;;;;;;;19.67;34.29;99549.38;5393665;26;20106;-66
2024/04/15 10:23:18;;;;;;;6.07;0.90;;;;;;;20.29;30.68;99539.50;5394010;26;20010;-67
2024/04/15 10:25:44;;;;;;;1.42;0.77;;;;;;;20.46;31.21;99542.84;5394262;26;20000;-66
2024/04/15 10:28:14;;;;;;;2.72;1.33;;;;;;;20.77;30.82;99540.00;5394014;26;20012;-66
2024/04/15 10:30:40;;;;;;;6.53;0.70;;;;;;;20.87;29.71;99543.75;5393917;26;20000;-66
2024/04/15 10:33:08;;;;;;;1.50;0.75;;;;;;;20.69;30.10;99535.22;5394253;26;20000;-66
2024/04/15 10:35:38;;;;;;;1.88;0.82;;;;;;;20.22;30.92;99537.34;5394185;26;20015;-66
2024/04/15 10:38:05;;;;;;;1.65;1.02;;;;;;;20.33;30.48;99531.38;5394024;26;20029;-66
2024/04/15 10:40:40;;;;;;;5.60;1.30;;;;;;;20.47;30.61;99530.50;5393897;26;20000;-66
2024/04/15 10:43:06;;;;;;;3.03;0.73;;;;;;;20.53;29.47;99530.97;5393594;26;20004;-66
2024/04/15 10:45:32;;;;;;;11.50;1.15;;;;;;;20.45;28.56;99541.13;5393869;26;20001;-66
2024/04/15 10:47:58;;;;;;;0.70;0.50;;;;;;;20.09;28.57;99538.13;5394137;26;20004;-67
2024/04/15 10:50:24;;;;;;;1.00;0.57;;;;;;;19.73;28.36;99537.63;5394004;26;20019;-67
2024/04/15 10:52:49;;;;;;;0.80;0.50;;;;;;;19.30;28.07;99541.88;5393626;26;20014;-68
2024/04/15 10:55:18;;;;;;;1.92;1.02;;;;;;;19.01;28.11;99535.69;5393494;26;20019;-67
2024/04/15 10:57:44;;;;;;;2.35;0.73;;;;;;;18.99;29.66;99533.13;5362480;26;20343;-67
2024/04/15 11:00:14;;;;;;;0.70;0.63;;;;;;;19.16;28.24;99529.56;5393727;26;20011;-65
2024/04/15 11:02:45;;;;;;;2.92;0.90;;;;;;;18.90;27.27;99523.13;5393538;26;20445;-66
2024/04/15 11:05:12;;;;;;;0.30;0.30;;;;;;;18.69;28.33;99511.13;5393379;26;19996;-66
2024/04/15 11:07:39;;;;;;;1.00;0.65;;;;;;;18.84;27.12;99519.06;5362581;26;20042;-67
2024/04/15 11:10:05;;;;;;;1.27;0.47;;;;;;;18.62;26.75;99511.56;5393250;26;20008;-67
2024/04/15 11:12:30;;;;;;;1.70;1.08;;;;;;;18.37;27.73;99512.97;5392752;26;20069;-67
2024/04/15 11:14:55;;;;;;;1.20;1.00;;;;;;;18.38;26.53;99502.34;5393415;26;20018;-66
2024/04/15 11:17:24;;;;;;;1.65;0.60;;;;;;;18.48;26.40;99512.34;5362310;26;20000;-66
2024/04/15 11:20:00;;;;;;;1.20;0.68;;;;;;;18.68;26.67;99492.81;5393413;26;20019;-66
2024/04/15 11:22:25;;;;;;;0.80;0.60;;;;;;;18.97;26.83;99492.06;5393604;26;20043;-67
2024/04/15 11:24:51;;;;;;;0.95;0.80;;;;;;;18.44;26.71;99501.16;5393121;26;20015;-66
2024/04/15 11:27:18;;;;;;;1.35;0.70;;;;;;;17.07;28.34;99496.00;5393046;26;20043;-66
2024/04/15 11:29:46;;;;;;;0.98;0.63;;;;;;;15.65;30.33;99489.47;5392782;26;20004;-67
2024/04/15 11:32:12;;;;;;;1.05;0.60;;;;;;;14.57;32.37;99492.13;5391414;26;20000;-67